createdAt,value
2023-04-20T05:01:10.465Z,500.00
2023-04-20T05:02:10.520Z,500.00
2023-04-20T05:03:10.517Z,500.00
2023-04-20T05:04:10.651Z,500.00
2023-04-20T05:05:10.525Z,500.00
2023-04-20T05:06:10.575Z,500.00
2023-04-20T05:07:10.606Z,400.00
2023-04-20T05:08:10.652Z,400.00
2023-04-20T05:09:10.651Z,400.00
2023-04-20T05:10:10.696Z,400.00
2023-04-20T05:11:10.728Z,400.00
2023-04-20T05:12:10.679Z,400.00
2023-04-20T05:13:10.735Z,400.00
2023-04-20T05:14:10.754Z,400.00
2023-04-20T05:15:10.752Z,400.00
2023-04-20T05:16:10.858Z,400.00
2023-04-20T05:17:10.803Z,400.00
2023-04-20T05:18:10.832Z,400.00
2023-04-20T05:19:10.897Z,400.00
2023-04-20T05:20:10.860Z,400.00
2023-04-20T05:21:10.891Z,400.00
2023-04-20T05:22:10.972Z,400.00
2023-04-20T05:23:10.981Z,400.00
2023-04-20T05:24:11.015Z,400.00
2023-04-20T05:25:13.281Z,400.00
2023-04-20T05:26:11.006Z,400.00
2023-04-20T05:27:11.019Z,410.00
2023-04-20T05:28:11.001Z,442.00
2023-04-20T05:29:11.027Z,472.00
2023-04-20T05:30:20.201Z,493.00
2023-04-20T05:31:11.966Z,494.00
2023-04-20T05:32:11.118Z,476.00
2023-04-20T05:33:10.963Z,479.00
2023-04-20T05:34:10.946Z,455.00
2023-04-20T05:35:10.997Z,462.00
2023-04-20T05:36:10.961Z,500.00
2023-04-20T05:37:10.929Z,521.00
2023-04-20T05:38:10.927Z,513.00
2023-04-20T05:39:10.927Z,496.00
2023-04-20T05:40:10.917Z,492.00
2023-04-20T05:41:10.915Z,500.00
2023-04-20T05:42:10.895Z,503.00
2023-04-20T05:43:10.894Z,501.00
2023-04-20T05:44:10.931Z,508.00
2023-04-20T05:45:10.896Z,513.00
2023-04-20T05:46:10.997Z,500.00
2023-04-20T05:47:10.891Z,507.00
2023-04-20T05:48:10.950Z,504.00
2023-04-20T05:49:10.937Z,500.00
2023-04-20T05:50:10.955Z,528.00
2023-04-20T05:51:10.977Z,537.00
2023-04-20T05:52:10.975Z,531.00
2023-04-20T05:53:10.982Z,534.00
2023-04-20T05:54:11.016Z,500.00
2023-04-20T05:55:10.989Z,517.00
2023-04-20T05:56:11.009Z,546.00
2023-04-20T05:57:11.015Z,551.00
2023-04-20T05:58:11.046Z,548.00
2023-04-20T05:59:11.068Z,558.00
2023-04-20T06:00:11.054Z,543.00
2023-04-20T06:01:11.086Z,541.00
2023-04-20T06:02:11.197Z,526.00
2023-04-20T06:03:11.308Z,535.00
2023-04-20T06:04:11.425Z,552.00
2023-04-20T06:05:11.448Z,580.00
2023-04-20T06:06:16.150Z,558.00
2023-04-20T06:07:11.286Z,559.00
2023-04-20T06:08:11.556Z,536.00
2023-04-20T06:09:11.386Z,533.00
2023-04-20T06:11:08.574Z,500.00
2023-04-20T06:12:08.552Z,500.00
2023-04-20T06:13:08.569Z,500.00
2023-04-20T06:14:08.539Z,500.00
2023-04-20T06:15:09.281Z,500.00
2023-04-20T06:16:08.625Z,525.00
2023-04-20T06:17:08.532Z,514.00
2023-04-20T06:18:08.546Z,517.00
2023-04-20T06:19:08.511Z,525.00
2023-04-20T06:20:08.493Z,504.00
2023-04-20T06:21:08.494Z,531.00
2023-04-20T06:22:08.500Z,523.00
2023-04-20T06:23:08.477Z,516.00
2023-04-20T06:24:08.477Z,506.00
2023-04-20T06:25:08.487Z,484.00
2023-04-20T06:26:08.447Z,564.00
2023-04-20T06:27:08.440Z,555.00
2023-04-20T06:28:08.565Z,523.00
2023-04-20T06:29:08.432Z,545.00
2023-04-20T06:30:08.461Z,563.00
2023-04-20T06:31:08.467Z,555.00
2023-04-20T06:32:08.405Z,579.00
2023-04-20T06:33:10.281Z,588.00
2023-04-20T06:34:08.418Z,589.00
2023-04-20T06:35:08.404Z,581.00
2023-04-20T06:36:08.386Z,582.00
2023-04-20T06:37:09.257Z,595.00
2023-04-20T06:38:08.382Z,604.00
2023-04-20T06:39:08.425Z,584.00
2023-04-20T06:40:08.833Z,603.00
2023-04-20T06:41:08.343Z,608.00
2023-04-20T06:42:08.387Z,638.00
2023-04-20T06:43:08.418Z,644.00
2023-04-20T06:44:08.335Z,656.00
2023-04-20T06:45:08.353Z,658.00
2023-04-20T06:46:08.332Z,638.00
2023-04-20T06:47:08.336Z,642.00
2023-04-20T06:48:17.191Z,640.00
2023-04-20T06:49:08.266Z,641.00
2023-04-20T06:50:08.325Z,643.00
2023-04-20T06:51:08.378Z,651.00
2023-04-20T06:52:08.240Z,656.00
2023-04-20T06:53:08.304Z,640.00
2023-04-20T06:54:08.238Z,681.00
2023-04-20T06:55:08.399Z,630.00
2023-04-20T06:56:08.245Z,736.00
2023-04-20T06:57:08.236Z,769.00
2023-04-20T06:58:08.237Z,724.00
2023-04-20T06:59:08.216Z,654.00
2023-04-20T07:00:08.303Z,637.00
2023-04-20T07:01:08.414Z,669.00
2023-04-20T07:02:08.596Z,762.00
2023-04-20T07:03:08.624Z,695.00
2023-04-20T07:04:08.581Z,695.00
2023-04-20T07:05:08.542Z,657.00
2023-04-20T07:06:08.537Z,688.00
2023-04-20T07:07:08.608Z,666.00
2023-04-20T07:08:08.604Z,763.00
2023-04-20T07:09:08.707Z,735.00
2023-04-20T07:10:10.911Z,618.00
2023-04-20T07:11:08.799Z,619.00
2023-04-20T07:12:08.837Z,623.00
2023-04-20T07:13:08.892Z,623.00
2023-04-20T07:14:09.014Z,645.00
2023-04-20T07:15:09.025Z,660.00
2023-04-20T07:16:09.075Z,713.00
2023-04-20T07:17:09.144Z,651.00
2023-04-20T07:18:09.263Z,662.00
2023-04-20T07:19:09.207Z,749.00
2023-04-20T07:20:09.271Z,777.00
2023-04-20T07:21:09.308Z,774.00
2023-04-20T07:22:09.363Z,852.00
2023-04-20T07:23:09.513Z,832.00
2023-04-20T07:24:09.903Z,918.00
2023-04-20T07:25:09.596Z,934.00
2023-04-20T07:26:09.461Z,980.00
2023-04-20T07:27:09.502Z,1018.00
2023-04-20T07:28:09.580Z,948.00
2023-04-20T07:29:09.560Z,1077.00
2023-04-20T07:30:09.646Z,1094.00
2023-04-20T07:31:09.743Z,1086.00
2023-04-20T07:32:09.757Z,1124.00
2023-04-20T07:33:09.884Z,1129.00
2023-04-20T07:34:09.784Z,1077.00
2023-04-20T07:35:09.771Z,1110.00
2023-04-20T07:36:09.830Z,1143.00
2023-04-20T07:37:09.799Z,1155.00
2023-04-20T07:38:09.868Z,1144.00
2023-04-20T07:39:11.797Z,1170.00
2023-04-20T07:40:09.984Z,1188.00
2023-04-20T07:41:09.963Z,1167.00
2023-04-20T07:42:09.956Z,1196.00
2023-04-20T07:43:10.019Z,1215.00
2023-04-20T07:44:10.000Z,1258.00
2023-04-20T07:45:10.085Z,1261.00
2023-04-20T07:46:10.123Z,1233.00
2023-04-20T07:47:10.073Z,1288.00
2023-04-20T07:48:10.218Z,1317.00
2023-04-20T07:49:10.132Z,1342.00
2023-04-20T07:50:10.216Z,1366.00
2023-04-20T07:51:10.180Z,1383.00
2023-04-20T07:52:16.419Z,1387.00
2023-04-20T07:53:11.137Z,1388.00
2023-04-20T07:54:10.158Z,1394.00
2023-04-20T07:55:10.175Z,1400.00
2023-04-20T07:56:10.129Z,1409.00
2023-04-20T07:57:10.146Z,1448.00
2023-04-20T07:58:10.143Z,1429.00
2023-04-20T07:59:10.167Z,1434.00
2023-04-20T08:00:10.125Z,1466.00
2023-04-20T08:01:10.112Z,1446.00
2023-04-20T08:02:10.172Z,1488.00
2023-04-20T08:03:10.453Z,1500.00
2023-04-20T08:04:10.254Z,1494.00
2023-04-20T08:05:10.362Z,1490.00
2023-04-20T08:06:10.086Z,1485.00
2023-04-20T08:07:10.066Z,1472.00
2023-04-20T08:08:10.088Z,1486.00
2023-04-20T08:09:11.921Z,1473.00
2023-04-20T08:10:10.551Z,1481.00
2023-04-20T08:11:10.061Z,1501.00
2023-04-20T08:12:10.027Z,1493.00
2023-04-20T08:13:10.040Z,1509.00
2023-04-20T08:14:10.057Z,1409.00
2023-04-20T08:15:10.132Z,1330.00
2023-04-20T08:16:10.038Z,1287.00
2023-04-20T08:17:10.025Z,1274.00
2023-04-20T08:18:10.015Z,1211.00
2023-04-20T08:19:10.033Z,1230.00
2023-04-20T08:20:09.959Z,1267.00
2023-04-20T08:21:10.034Z,1323.00
2023-04-20T08:22:09.935Z,1272.00
2023-04-20T08:23:09.983Z,1256.00
2023-04-20T08:24:09.953Z,1278.00
2023-04-20T08:25:09.939Z,1295.00
2023-04-20T08:26:09.966Z,1231.00
2023-04-20T08:27:09.913Z,1203.00
2023-04-20T08:28:15.375Z,1172.00
2023-04-20T08:29:10.951Z,1173.00
2023-04-20T08:30:10.078Z,1109.00
2023-04-20T08:31:09.944Z,1140.00
2023-04-20T08:32:09.919Z,1201.00
2023-04-20T08:33:09.962Z,1213.00
2023-04-20T08:34:09.886Z,1243.00
2023-04-20T08:35:09.915Z,1233.00
2023-04-20T08:36:09.858Z,1280.00
2023-04-20T08:37:09.907Z,1293.00
2023-04-20T08:38:09.975Z,1326.00
2023-04-20T08:39:09.845Z,1383.00
2023-04-20T08:40:09.893Z,1324.00
2023-04-20T08:41:09.897Z,1384.00
2023-04-20T08:43:09.973Z,1411.00
2023-04-20T08:44:09.978Z,1428.00
2023-04-20T08:45:10.027Z,1407.00
2023-04-20T08:46:10.070Z,1445.00
2023-04-20T08:47:10.139Z,1390.00
2023-04-20T08:48:10.113Z,1339.00
2023-04-20T08:49:10.138Z,1307.00
2023-04-20T08:50:10.241Z,1299.00
2023-04-20T08:51:10.193Z,1291.00
2023-04-20T08:52:10.240Z,1316.00
2023-04-20T08:53:10.406Z,1325.00
2023-04-20T08:54:10.290Z,1279.00
2023-04-20T08:55:10.392Z,1270.00
2023-04-20T08:56:10.402Z,1272.00
2023-04-20T08:57:10.369Z,1276.00
2023-04-20T08:58:10.372Z,1290.00
2023-04-20T08:59:10.515Z,1277.00
2023-04-20T09:00:12.847Z,1294.00
2023-04-20T09:01:10.495Z,1307.00
2023-04-20T09:02:10.534Z,1289.00
2023-04-20T09:03:10.525Z,1299.00
2023-04-20T09:04:10.522Z,1318.00
2023-04-20T09:05:10.451Z,1314.00
2023-04-20T09:06:10.386Z,1332.00
2023-04-20T09:07:10.353Z,1333.00
2023-04-20T09:08:10.392Z,1358.00
2023-04-20T09:09:11.558Z,1358.00
2023-04-20T09:10:10.350Z,1372.00
2023-04-20T09:11:10.353Z,1383.00
2023-04-20T09:12:10.416Z,1386.00
2023-04-20T09:13:10.328Z,1408.00
2023-04-20T09:14:10.282Z,1399.00
2023-04-20T09:15:10.290Z,1406.00
2023-04-20T09:16:10.357Z,1424.00
2023-04-20T09:17:10.296Z,1428.00
2023-04-20T09:18:10.309Z,1428.00
2023-04-20T09:19:11.275Z,1444.00
2023-04-20T09:20:10.423Z,1465.00
2023-04-20T09:21:10.473Z,1460.00
2023-04-20T09:22:10.493Z,1476.00
2023-04-20T09:23:10.473Z,1476.00
2023-04-20T09:24:10.510Z,1487.00
2023-04-20T09:25:10.523Z,1491.00
2023-04-20T09:26:10.554Z,1494.00
2023-04-20T09:27:10.593Z,1496.00
2023-04-20T09:28:10.934Z,1515.00
2023-04-20T09:29:10.820Z,1515.00
2023-04-20T09:30:10.724Z,1536.00
2023-04-20T09:31:10.783Z,1523.00
2023-04-20T09:32:10.872Z,1528.00
2023-04-20T09:33:11.159Z,1531.00
2023-04-20T09:34:10.913Z,1519.00
2023-04-20T09:35:11.001Z,1547.00
2023-04-20T09:36:11.037Z,1555.00
2023-04-20T09:37:11.100Z,1550.00
2023-04-20T09:38:11.122Z,1556.00
2023-04-20T09:39:11.176Z,1549.00
2023-04-20T09:40:11.206Z,1563.00
2023-04-20T09:41:11.236Z,1568.00
2023-04-20T09:42:11.374Z,1570.00
2023-04-20T09:43:12.537Z,1585.00
2023-04-20T09:44:11.414Z,1128.00
2023-04-20T09:45:11.422Z,913.00
2023-04-20T09:46:11.573Z,820.00
2023-04-20T09:47:11.416Z,805.00
2023-04-20T09:48:11.526Z,706.00
2023-04-20T09:49:11.447Z,639.00
2023-04-20T09:50:24.702Z,601.00
2023-04-20T09:51:12.559Z,602.00
2023-04-20T09:52:11.494Z,567.00
2023-04-20T09:53:11.551Z,554.00
2023-04-20T09:54:11.443Z,517.00
2023-04-20T09:55:11.498Z,502.00
2023-04-20T09:56:11.465Z,506.00
2023-04-20T09:57:11.420Z,497.00
2023-04-20T09:58:11.429Z,538.00
2023-04-20T09:59:11.471Z,534.00
2023-04-20T10:00:11.881Z,508.00
2023-04-20T10:01:11.568Z,502.00
2023-04-20T10:02:11.642Z,544.00
2023-04-20T10:03:11.649Z,515.00
2023-04-20T10:04:11.821Z,506.00
2023-04-20T10:05:11.638Z,513.00
2023-04-20T10:06:11.579Z,507.00
2023-04-20T10:07:11.644Z,529.00
2023-04-20T10:08:11.639Z,507.00
2023-04-20T10:09:11.665Z,528.00
2023-04-20T10:10:11.731Z,507.00
2023-04-20T10:11:12.383Z,503.00
2023-04-20T10:12:11.733Z,521.00
2023-04-20T10:13:11.734Z,527.00
2023-04-20T10:14:11.822Z,508.00
2023-04-20T10:15:11.828Z,505.00
2023-04-20T10:16:11.857Z,499.00
2023-04-20T10:17:11.999Z,500.00
2023-04-20T10:18:12.058Z,514.00
2023-04-20T10:19:12.004Z,507.00
2023-04-20T10:20:11.985Z,519.00
2023-04-20T10:21:12.094Z,531.00
2023-04-20T10:22:12.113Z,516.00
2023-04-20T10:23:12.139Z,550.00
2023-04-20T10:24:12.229Z,514.00
2023-04-20T10:25:12.245Z,518.00
2023-04-20T10:26:12.330Z,500.00
2023-04-20T10:27:12.347Z,544.00
2023-04-20T10:28:12.458Z,581.00
2023-04-20T10:29:12.416Z,663.00
2023-04-20T10:30:12.501Z,755.00
2023-04-20T10:31:12.545Z,896.00
2023-04-20T10:32:12.523Z,951.00
2023-04-20T10:33:12.653Z,965.00
2023-04-20T10:34:12.535Z,1076.00
2023-04-20T10:35:12.522Z,1156.00
2023-04-20T10:36:12.559Z,1178.00
2023-04-20T10:37:12.571Z,1224.00
2023-04-20T10:38:12.583Z,1221.00
2023-04-20T10:39:12.638Z,1222.00
2023-04-20T10:40:12.681Z,1248.00
2023-04-20T10:41:12.784Z,1287.00
2023-04-20T10:42:17.974Z,1279.00
2023-04-20T10:43:12.899Z,1280.00
2023-04-20T10:44:12.854Z,1280.00
2023-04-20T10:45:12.915Z,1293.00
2023-04-20T10:46:13.042Z,1336.00
2023-04-20T10:47:12.973Z,1358.00
2023-04-20T10:48:12.993Z,1405.00
2023-04-20T10:49:13.007Z,1439.00
2023-04-20T10:50:13.428Z,1464.00
2023-04-20T10:51:13.053Z,1470.00
2023-04-20T10:52:13.098Z,1475.00
2023-04-20T10:53:13.118Z,1484.00
2023-04-20T10:54:13.119Z,1337.00
2023-04-20T10:55:13.142Z,1238.00
2023-04-20T10:56:13.193Z,1033.00
2023-04-20T10:57:13.225Z,870.00
2023-04-20T10:58:13.310Z,864.00
2023-04-20T10:59:13.337Z,813.00
2023-04-20T11:00:14.358Z,761.00
2023-04-20T11:01:13.360Z,711.00
2023-04-20T11:02:13.461Z,665.00
2023-04-20T11:03:13.588Z,654.00
2023-04-20T11:04:14.481Z,642.00
2023-04-20T11:05:13.489Z,601.00
2023-04-20T11:06:13.400Z,573.00
2023-04-20T11:07:13.556Z,565.00
2023-04-20T11:08:13.454Z,633.00
2023-04-20T11:09:13.467Z,715.00
2023-04-20T11:10:13.528Z,826.00
2023-04-20T11:11:13.490Z,980.00
2023-04-20T11:12:13.470Z,1050.00
2023-04-20T11:13:13.505Z,1141.00
2023-04-20T11:14:13.512Z,1163.00
2023-04-20T11:15:13.523Z,1198.00
2023-04-20T11:16:13.645Z,1159.00
2023-04-20T11:17:13.663Z,1131.00
2023-04-20T11:18:13.683Z,1128.00
2023-04-20T11:19:13.718Z,1133.00
2023-04-20T11:20:13.753Z,1135.00
2023-04-20T11:21:13.810Z,1146.00
2023-04-20T11:22:13.876Z,1155.00
2023-04-20T11:23:13.897Z,1162.00
2023-04-20T11:24:13.918Z,1171.00
2023-04-20T11:25:13.976Z,1202.00
2023-04-20T11:26:13.998Z,1210.00
2023-04-20T11:27:14.043Z,1214.00
2023-04-20T11:28:14.030Z,1229.00
2023-04-20T11:29:14.074Z,1265.00
2023-04-20T11:30:14.129Z,1266.00
2023-04-20T11:31:14.138Z,1252.00
2023-04-20T11:32:14.255Z,1295.00
2023-04-20T11:33:14.428Z,1280.00
2023-04-20T11:34:14.164Z,1321.00
2023-04-20T11:35:14.255Z,1323.00
2023-04-20T11:36:14.210Z,1313.00
2023-04-20T11:37:14.252Z,1319.00
2023-04-20T11:38:14.280Z,1325.00
2023-04-20T11:39:14.272Z,1275.00
2023-04-20T11:40:14.693Z,926.00
2023-04-20T11:41:14.353Z,634.00
2023-04-20T11:42:14.390Z,616.00
2023-04-20T11:43:14.440Z,554.00
2023-04-20T11:44:14.424Z,500.00
2023-04-20T11:45:14.431Z,523.00
2023-04-20T11:46:14.599Z,500.00
2023-04-20T11:47:14.460Z,511.00
2023-04-20T11:48:14.504Z,502.00
2023-04-20T11:49:14.512Z,512.00
2023-04-20T11:50:14.617Z,503.00
2023-04-20T11:51:14.660Z,525.00
2023-04-20T11:52:14.683Z,453.00
2023-04-20T11:53:14.763Z,536.00
2023-04-20T11:54:14.784Z,502.00
2023-04-20T11:55:14.802Z,547.00
2023-04-20T11:56:14.836Z,500.00
2023-04-20T11:57:14.906Z,495.00
2023-04-20T11:58:14.891Z,510.00
2023-04-20T11:59:14.925Z,527.00
2023-04-20T12:00:14.917Z,511.00
2023-04-20T12:01:14.981Z,544.00
2023-04-20T12:02:15.026Z,567.00
2023-04-20T12:03:15.102Z,623.00
2023-04-20T12:04:15.756Z,628.00
2023-04-20T12:05:15.049Z,660.00
2023-04-20T12:06:14.970Z,680.00
2023-04-20T12:07:14.991Z,683.00
2023-04-20T12:08:14.978Z,749.00
2023-04-20T12:09:15.120Z,662.00
2023-04-20T12:10:15.056Z,641.00
2023-04-20T12:11:15.053Z,637.00
2023-04-20T12:12:15.080Z,647.00
2023-04-20T12:13:15.125Z,638.00
2023-04-20T12:14:15.029Z,622.00
2023-04-20T12:15:15.117Z,607.00
2023-04-20T12:16:15.119Z,621.00
2023-04-20T12:17:15.950Z,596.00
2023-04-20T12:18:15.134Z,575.00
2023-04-20T12:19:15.364Z,540.00
2023-04-20T12:20:15.277Z,559.00
2023-04-20T12:21:15.122Z,543.00
2023-04-20T12:22:15.172Z,585.00
2023-04-20T12:23:15.190Z,611.00
2023-04-20T12:24:15.179Z,646.00
2023-04-20T12:25:15.194Z,658.00
2023-04-20T12:26:15.233Z,686.00
2023-04-20T12:27:15.245Z,735.00
2023-04-20T12:28:15.222Z,730.00
2023-04-20T12:29:15.487Z,794.00
2023-04-20T12:30:15.246Z,773.00
2023-04-20T12:31:15.315Z,785.00
2023-04-20T12:32:15.404Z,797.00
2023-04-20T12:33:15.296Z,776.00
2023-04-20T12:34:15.987Z,785.00
2023-04-20T12:35:15.398Z,763.00
2023-04-20T12:36:15.442Z,896.00
2023-04-20T12:37:15.331Z,895.00
2023-04-20T12:38:15.356Z,947.00
2023-04-20T12:39:15.454Z,912.00
2023-04-20T12:40:15.512Z,950.00
2023-04-20T12:41:15.533Z,1024.00
2023-04-20T12:42:15.558Z,1224.00
2023-04-20T12:43:15.569Z,1188.00
2023-04-20T12:44:15.639Z,1195.00
2023-04-20T12:45:15.793Z,1084.00
2023-04-20T12:46:15.737Z,1056.00
2023-04-20T12:47:15.868Z,1061.00
2023-04-20T12:48:15.955Z,940.00
2023-04-20T12:49:16.157Z,1043.00
2023-04-20T12:50:15.849Z,1001.00
2023-04-20T12:51:15.820Z,987.00
2023-04-20T12:52:15.831Z,873.00
2023-04-20T12:53:15.870Z,1106.00
2023-04-20T12:54:16.039Z,1247.00
2023-04-20T12:55:15.929Z,1044.00
2023-04-20T12:56:15.976Z,833.00
2023-04-20T12:57:15.947Z,1003.00
2023-04-20T12:58:16.021Z,1132.00
2023-04-20T12:59:16.014Z,1196.00
2023-04-20T13:00:16.073Z,1226.00
2023-04-20T13:01:16.243Z,1180.00
2023-04-20T13:02:16.132Z,980.00
2023-04-20T13:03:16.243Z,911.00
2023-04-20T13:04:16.401Z,862.00
2023-04-20T13:05:16.074Z,806.00
2023-04-20T13:06:16.130Z,912.00
2023-04-20T13:07:16.092Z,890.00
2023-04-20T13:08:16.093Z,967.00
2023-04-20T13:09:16.114Z,1179.00
2023-04-20T13:10:16.105Z,1094.00
2023-04-20T13:11:16.164Z,1160.00
2023-04-20T13:12:16.115Z,1158.00
2023-04-20T13:13:16.101Z,1186.00
2023-04-20T13:14:16.165Z,1092.00
2023-04-20T13:15:18.876Z,1160.00
2023-04-20T13:16:17.139Z,970.00
2023-04-20T13:17:16.093Z,1067.00
2023-04-20T13:18:16.039Z,999.00
2023-04-20T13:19:16.053Z,1081.00
2023-04-20T13:20:16.048Z,1032.00
2023-04-20T13:21:16.067Z,977.00
2023-04-20T13:22:18.658Z,1087.00
2023-04-20T13:23:16.033Z,1122.00
2023-04-20T13:24:16.270Z,1132.00
2023-04-20T13:25:16.044Z,1045.00
2023-04-20T13:26:16.029Z,975.00
2023-04-20T13:27:16.030Z,916.00
2023-04-20T13:28:15.998Z,980.00
2023-04-20T13:29:16.240Z,964.00
2023-04-20T13:30:15.955Z,1031.00
2023-04-20T13:31:15.992Z,896.00
2023-04-20T13:32:16.062Z,1015.00
2023-04-20T13:33:16.010Z,1070.00
2023-04-20T13:34:16.189Z,1048.00
2023-04-20T13:35:15.947Z,1065.00
2023-04-20T13:36:16.001Z,927.00
2023-04-20T13:37:15.935Z,974.00
2023-04-20T13:38:15.942Z,973.00
2023-04-20T13:39:16.059Z,923.00
2023-04-20T13:40:15.988Z,735.00
2023-04-20T13:41:15.914Z,813.00
2023-04-20T13:42:15.929Z,741.00
2023-04-20T13:43:15.938Z,832.00
2023-04-20T13:44:16.140Z,735.00
2023-04-20T13:45:15.884Z,622.00
2023-04-20T13:46:15.915Z,598.00
2023-04-20T13:47:15.904Z,601.00
2023-04-20T13:48:15.859Z,630.00
2023-04-20T13:49:15.861Z,660.00
2023-04-20T13:50:15.859Z,654.00
2023-04-20T13:51:15.923Z,740.00
2023-04-20T13:52:15.839Z,794.00
2023-04-20T13:53:15.863Z,776.00
2023-04-20T13:54:15.920Z,690.00
2023-04-20T13:55:15.904Z,815.00
2023-04-20T13:56:16.025Z,853.00
2023-04-20T13:57:15.847Z,1042.00
2023-04-20T13:58:15.798Z,1146.00
2023-04-20T13:59:15.838Z,1122.00
2023-04-20T14:00:15.795Z,1084.00
2023-04-20T14:01:15.866Z,1084.00
2023-04-20T14:02:15.893Z,1221.00
2023-04-20T14:03:16.025Z,1622.00
2023-04-20T14:04:15.856Z,1557.00
2023-04-20T14:05:15.820Z,1730.00
2023-04-20T14:06:15.747Z,1801.00
2023-04-20T14:07:15.741Z,2040.00
2023-04-20T14:08:15.743Z,2235.00
2023-04-20T14:09:15.724Z,2307.00
2023-04-20T14:10:15.747Z,2287.00
2023-04-20T14:11:15.757Z,2291.00
2023-04-20T14:12:15.741Z,2319.00
2023-04-20T14:13:15.724Z,2324.00
2023-04-20T14:14:16.046Z,2363.00
2023-04-20T14:15:15.694Z,2356.00
2023-04-20T14:16:15.792Z,2385.00
2023-04-20T14:17:15.677Z,2386.00
2023-04-20T14:18:15.671Z,2413.00
2023-04-20T14:19:15.736Z,2394.00
2023-04-20T14:20:15.798Z,2409.00
2023-04-20T14:21:15.850Z,2409.00
2023-04-20T14:22:15.901Z,2424.00
2023-04-20T14:23:15.953Z,2408.00
2023-04-20T14:24:16.235Z,2407.00
2023-04-20T14:25:16.068Z,2439.00
2023-04-20T14:26:16.119Z,2413.00
2023-04-20T14:27:16.132Z,2431.00
2023-04-20T14:28:16.161Z,2465.00
2023-04-20T14:29:16.229Z,2495.00
2023-04-20T14:30:16.267Z,2521.00
2023-04-20T14:31:16.383Z,2528.00
2023-04-20T14:32:16.330Z,2538.00
2023-04-20T14:33:16.407Z,2542.00
2023-04-20T14:34:16.578Z,2542.00
2023-04-20T14:35:16.447Z,2545.00
2023-04-20T14:36:16.429Z,2552.00
2023-04-20T14:37:16.484Z,2541.00
2023-04-20T14:38:16.558Z,2534.00
2023-04-20T14:39:16.542Z,2515.00
2023-04-20T14:40:16.564Z,2518.00
2023-04-20T14:41:16.607Z,2516.00
2023-04-20T14:42:16.618Z,2525.00
2023-04-20T14:43:16.686Z,2513.00
2023-04-20T14:44:16.887Z,2513.00
2023-04-20T14:45:16.723Z,2500.00
2023-04-20T14:46:16.816Z,2504.00
2023-04-20T14:47:16.755Z,2484.00
2023-04-20T14:48:16.844Z,2494.00
2023-04-20T14:49:16.844Z,2480.00
2023-04-20T14:50:16.840Z,2489.00
2023-04-20T14:51:16.896Z,2468.00
2023-04-20T14:52:16.871Z,2468.00
2023-04-20T14:53:16.941Z,2477.00
2023-04-20T14:54:17.213Z,2474.00
2023-04-20T14:55:17.008Z,2465.00
2023-04-20T14:56:16.992Z,2448.00
2023-04-20T14:57:17.006Z,2447.00
2023-04-20T14:58:17.067Z,2438.00
2023-04-20T14:59:17.044Z,2451.00
2023-04-20T15:00:17.112Z,2431.00
2023-04-20T15:01:17.165Z,2427.00
2023-04-20T15:02:17.214Z,2412.00
2023-04-20T15:03:17.293Z,2405.00
2023-04-20T15:04:17.447Z,2402.00
2023-04-20T15:05:17.364Z,2402.00
2023-04-20T15:06:17.176Z,2406.00
2023-04-20T15:07:17.224Z,2392.00
2023-04-20T15:08:17.217Z,2386.00
2023-04-20T15:09:17.248Z,2369.00
2023-04-20T15:10:17.265Z,2372.00
2023-04-20T15:11:17.297Z,2364.00
2023-04-20T15:12:17.344Z,2368.00
2023-04-20T15:13:17.481Z,2348.00
2023-04-20T15:14:17.520Z,2357.00
2023-04-20T15:15:17.388Z,2348.00
2023-04-20T15:16:17.418Z,2332.00
2023-04-20T15:17:17.446Z,2327.00
2023-04-20T15:18:17.469Z,2317.00
2023-04-20T15:19:17.493Z,2327.00
2023-04-20T15:20:17.493Z,2329.00
2023-04-20T15:21:17.510Z,2312.00
2023-04-20T15:22:17.564Z,2300.00
2023-04-20T15:23:17.594Z,2304.00
2023-04-20T15:24:17.820Z,2295.00
2023-04-20T15:25:17.688Z,2293.00
2023-04-20T15:26:17.654Z,2285.00
2023-04-20T15:27:17.676Z,2275.00
2023-04-20T15:28:17.733Z,2268.00
2023-04-20T15:29:17.723Z,2277.00
2023-04-20T15:30:17.733Z,2287.00
2023-04-20T15:31:17.782Z,2275.00
2023-04-20T15:32:17.931Z,2250.00
2023-04-20T15:33:17.899Z,2256.00
2023-04-20T15:34:18.457Z,2248.00
2023-04-20T15:35:17.883Z,2250.00
2023-04-20T15:36:17.869Z,2218.00
2023-04-20T15:37:17.938Z,2240.00
2023-04-20T15:38:17.931Z,2237.00
2023-04-20T15:39:17.965Z,2225.00
2023-04-20T15:40:17.988Z,2223.00
2023-04-20T15:41:17.977Z,2215.00
2023-04-20T15:42:18.058Z,2223.00
2023-04-20T15:43:18.087Z,2217.00
2023-04-20T15:44:18.446Z,2212.00
2023-04-20T15:45:18.191Z,2199.00
2023-04-20T15:46:18.225Z,2185.00
2023-04-20T15:47:18.182Z,2203.00
2023-04-20T15:48:18.155Z,2203.00
2023-04-20T15:49:18.193Z,2198.00
2023-04-20T15:50:18.201Z,2183.00
2023-04-20T15:51:18.211Z,2174.00
2023-04-20T15:52:18.258Z,2166.00
2023-04-20T15:53:18.251Z,2181.00
2023-04-20T15:54:18.485Z,2170.00
2023-04-20T15:55:18.340Z,2162.00
2023-04-20T15:56:18.350Z,2182.00
2023-04-20T15:57:18.379Z,2172.00
2023-04-20T15:58:18.403Z,2153.00
2023-04-20T15:59:18.411Z,2150.00
2023-04-20T16:00:18.436Z,2158.00
2023-04-20T16:01:18.503Z,2165.00
2023-04-20T16:02:18.559Z,2143.00
2023-04-20T16:03:18.713Z,2144.00
2023-04-20T16:04:18.942Z,2134.00
2023-04-20T16:05:18.540Z,2120.00
2023-04-20T16:06:18.547Z,2113.00
2023-04-20T16:07:18.569Z,2127.00
2023-04-20T16:08:18.610Z,2100.00
2023-04-20T16:09:18.632Z,2113.00
2023-04-20T16:10:18.644Z,2097.00
2023-04-20T16:11:18.669Z,2093.00
2023-04-20T16:12:18.745Z,2102.00
2023-04-20T16:13:18.706Z,2101.00
2023-04-20T16:14:18.989Z,2085.00
2023-04-20T16:15:18.775Z,2079.00
2023-04-20T16:16:18.928Z,2083.00
2023-04-20T16:17:18.745Z,2068.00
2023-04-20T16:18:18.825Z,2069.00
2023-04-20T16:19:18.839Z,2062.00
2023-04-20T16:20:18.838Z,2066.00
2023-04-20T16:21:18.843Z,2059.00
2023-04-20T16:22:18.914Z,2045.00
2023-04-20T16:23:18.919Z,2058.00
2023-04-20T16:24:19.152Z,2055.00
2023-04-20T16:25:18.964Z,2034.00
2023-04-20T16:26:18.980Z,2027.00
2023-04-20T16:27:19.041Z,2064.00
2023-04-20T16:28:19.045Z,2053.00
2023-04-20T16:29:19.036Z,2054.00
2023-04-20T16:30:19.068Z,2028.00
2023-04-20T16:31:19.118Z,2032.00
2023-04-20T16:32:19.095Z,2028.00
2023-04-20T16:33:19.103Z,2029.00
2023-04-20T16:34:19.479Z,2022.00
2023-04-20T16:35:19.169Z,2025.00
2023-04-20T16:36:19.242Z,2012.00
2023-04-20T16:37:19.191Z,2014.00
2023-04-20T16:38:19.200Z,2007.00
2023-04-20T16:39:19.231Z,2012.00
2023-04-20T16:40:19.279Z,1985.00
2023-04-20T16:41:19.250Z,1991.00
2023-04-20T16:42:19.301Z,1977.00
2023-04-20T16:43:19.306Z,1978.00
2023-04-20T16:44:19.453Z,1974.00
2023-04-20T16:45:19.362Z,1973.00
2023-04-20T16:46:19.391Z,1981.00
2023-04-20T16:47:19.382Z,1990.00
2023-04-20T16:48:19.447Z,1970.00
2023-04-20T16:49:19.465Z,1970.00
2023-04-20T16:50:19.695Z,1976.00
2023-04-20T16:51:19.499Z,1982.00
2023-04-20T16:52:19.529Z,1965.00
2023-04-20T16:53:19.551Z,1950.00
2023-04-20T16:54:19.796Z,1962.00
2023-04-20T16:55:19.574Z,1949.00
2023-04-20T16:56:19.599Z,1938.00
2023-04-20T16:57:19.672Z,1929.00
2023-04-20T16:58:19.650Z,1939.00
2023-04-20T16:59:19.690Z,1925.00
2023-04-20T17:00:19.742Z,1929.00
